createdAt,value
2022-11-24T00:01:11.004Z,5.39
2022-11-24T00:03:39.190Z,5.68
2022-11-24T00:06:08.568Z,4.81
2022-11-24T00:08:36.829Z,5.40
2022-11-24T00:11:06.144Z,5.21
2022-11-24T00:13:33.972Z,5.72
2022-11-24T00:16:11.210Z,5.48
2022-11-24T00:18:39.343Z,5.76
2022-11-24T00:21:07.236Z,5.67
2022-11-24T00:23:35.442Z,5.64
2022-11-24T00:26:07.647Z,5.44
2022-11-24T00:28:36.117Z,5.11
2022-11-24T00:31:05.122Z,5.74
2022-11-24T00:33:34.005Z,5.90
2022-11-24T00:36:01.941Z,6.05
2022-11-24T00:38:29.356Z,6.24
2022-11-24T00:40:56.767Z,5.06
2022-11-24T00:43:24.232Z,5.11
2022-11-24T00:45:51.725Z,5.61
2022-11-24T00:48:19.221Z,5.79
2022-11-24T00:50:56.463Z,5.67
2022-11-24T00:53:23.861Z,5.73
2022-11-24T00:55:51.491Z,5.27
2022-11-24T00:58:18.972Z,5.47
2022-11-24T01:00:46.408Z,5.99
2022-11-24T01:03:13.807Z,5.76
2022-11-24T01:05:41.668Z,5.44
2022-11-24T01:08:11.138Z,4.79
2022-11-24T01:10:38.774Z,5.15
2022-11-24T01:13:06.434Z,5.79
2022-11-24T01:15:35.893Z,6.08
2022-11-24T01:18:04.041Z,5.79
2022-11-24T01:20:31.531Z,5.65
2022-11-24T01:22:58.931Z,5.95
2022-11-24T01:25:27.713Z,6.23
2022-11-24T01:27:55.107Z,6.18
2022-11-24T01:30:23.096Z,5.87
2022-11-24T01:32:50.454Z,5.84
2022-11-24T01:35:17.903Z,5.59
2022-11-24T01:37:45.279Z,4.70
2022-11-24T01:40:13.239Z,5.19
2022-11-24T01:42:47.413Z,5.43
2022-11-24T01:45:32.205Z,5.94
2022-11-24T01:48:01.956Z,5.87
2022-11-24T01:50:29.640Z,5.99
2022-11-24T01:52:58.002Z,5.45
2022-11-24T01:55:30.722Z,5.93
2022-11-24T01:58:03.408Z,5.84
2022-11-24T02:00:30.832Z,5.92
2022-11-24T02:02:59.470Z,5.50
2022-11-24T02:05:31.606Z,6.31
2022-11-24T02:08:03.003Z,9.56
2022-11-24T02:10:30.922Z,9.08
2022-11-24T02:13:00.633Z,9.77
2022-11-24T02:15:29.416Z,7.88
2022-11-24T02:17:56.873Z,8.71
2022-11-24T02:20:24.229Z,9.86
2022-11-24T02:22:56.221Z,7.90
2022-11-24T02:25:31.842Z,7.08
2022-11-24T02:28:02.572Z,6.75
2022-11-24T02:30:30.042Z,6.52
2022-11-24T02:33:05.817Z,6.06
2022-11-24T02:35:34.198Z,5.91
2022-11-24T02:38:01.601Z,6.00
2022-11-24T02:40:30.994Z,5.37
2022-11-24T02:43:05.018Z,4.76
2022-11-24T02:45:32.764Z,4.94
2022-11-24T02:48:00.248Z,5.22
2022-11-24T02:50:27.639Z,4.79
2022-11-24T02:52:55.070Z,5.00
2022-11-24T02:55:23.504Z,4.79
2022-11-24T02:57:50.911Z,4.83
2022-11-24T03:00:20.685Z,4.91
2022-11-24T03:02:48.196Z,5.18
2022-11-24T03:05:15.894Z,5.46
2022-11-24T03:07:43.339Z,5.22
2022-11-24T03:10:10.910Z,5.31
2022-11-24T03:12:38.300Z,5.12
2022-11-24T03:15:07.066Z,5.75
2022-11-24T03:17:36.068Z,5.62
2022-11-24T03:20:05.124Z,5.76
2022-11-24T03:22:32.965Z,5.47
2022-11-24T03:25:00.992Z,5.51
2022-11-24T03:27:28.377Z,5.67
2022-11-24T03:29:56.021Z,5.44
2022-11-24T03:32:23.847Z,5.72
2022-11-24T03:34:52.668Z,5.03
2022-11-24T03:37:20.111Z,5.33
2022-11-24T03:39:47.527Z,5.27
2022-11-24T03:42:14.935Z,4.49
2022-11-24T03:44:42.377Z,4.55
2022-11-24T03:47:10.392Z,3.78
2022-11-24T03:49:37.821Z,3.22
2022-11-24T03:52:08.404Z,4.36
2022-11-24T03:54:36.179Z,4.97
2022-11-24T03:57:03.763Z,5.19
2022-11-24T03:59:31.163Z,5.11
2022-11-24T04:01:58.613Z,4.45
2022-11-24T04:04:26.078Z,5.18
2022-11-24T04:06:53.462Z,5.25
2022-11-24T04:09:22.184Z,5.11
2022-11-24T04:12:06.962Z,5.09
2022-11-24T04:14:34.835Z,5.53
2022-11-24T04:17:04.165Z,5.27
2022-11-24T04:19:31.635Z,4.59
2022-11-24T04:21:59.083Z,4.76
2022-11-24T04:24:27.799Z,4.88
2022-11-24T04:26:55.428Z,4.69
2022-11-24T04:29:23.125Z,4.90
2022-11-24T04:31:50.591Z,4.64
2022-11-24T04:34:18.014Z,4.37
2022-11-24T04:36:45.389Z,4.77
2022-11-24T04:39:24.845Z,4.79
2022-11-24T04:41:54.929Z,5.09
2022-11-24T04:44:22.380Z,5.58
2022-11-24T04:46:49.909Z,5.50
2022-11-24T04:49:17.632Z,5.69
2022-11-24T04:51:45.276Z,5.38
2022-11-24T04:54:14.249Z,5.41
2022-11-24T04:56:42.470Z,5.14
2022-11-24T04:59:14.728Z,5.31
2022-11-24T05:01:42.468Z,5.55
2022-11-24T05:04:11.425Z,5.74
2022-11-24T05:06:38.955Z,5.72
2022-11-24T05:09:09.315Z,5.77
2022-11-24T05:11:35.799Z,5.87
2022-11-24T05:14:03.219Z,4.97
2022-11-24T05:16:32.030Z,4.68
2022-11-24T05:18:59.514Z,4.52
2022-11-24T05:21:26.895Z,4.66
2022-11-24T05:23:54.313Z,4.82
2022-11-24T05:26:22.315Z,5.44
2022-11-24T05:28:49.751Z,5.25
2022-11-24T05:31:17.196Z,5.38
2022-11-24T05:33:46.041Z,4.70
2022-11-24T05:36:33.998Z,4.74
2022-11-24T05:39:02.101Z,5.07
2022-11-24T05:41:29.461Z,5.40
2022-11-24T05:43:56.844Z,5.19
2022-11-24T05:46:24.301Z,5.20
2022-11-24T05:48:53.016Z,5.31
2022-11-24T05:51:20.440Z,4.92
2022-11-24T05:53:47.870Z,5.22
2022-11-24T05:56:15.271Z,5.02
2022-11-24T05:58:43.541Z,5.05
2022-11-24T06:01:11.038Z,5.25
2022-11-24T06:03:38.418Z,5.20
2022-11-24T06:06:07.680Z,5.30
2022-11-24T06:08:35.089Z,5.42
2022-11-24T06:11:17.110Z,5.69
2022-11-24T06:13:45.432Z,5.46
2022-11-24T06:16:13.598Z,5.85
2022-11-24T06:18:41.726Z,5.63
2022-11-24T06:21:11.921Z,5.05
2022-11-24T06:23:40.254Z,5.16
2022-11-24T06:26:09.158Z,4.77
2022-11-24T06:28:36.716Z,5.14
2022-11-24T06:31:05.323Z,5.14
2022-11-24T06:33:34.235Z,5.42
2022-11-24T06:36:03.527Z,5.60
2022-11-24T06:38:32.665Z,5.18
2022-11-24T06:41:01.482Z,4.98
2022-11-24T06:43:29.038Z,4.40
2022-11-24T06:45:56.624Z,4.61
2022-11-24T06:48:24.488Z,5.09
2022-11-24T06:50:52.009Z,5.47
2022-11-24T06:53:19.962Z,5.49
2022-11-24T06:55:48.749Z,5.74
2022-11-24T06:58:16.173Z,5.75
2022-11-24T07:00:44.601Z,5.63
2022-11-24T07:03:16.883Z,5.48
2022-11-24T07:05:44.526Z,5.37
2022-11-24T07:08:17.438Z,4.95
2022-11-24T07:10:45.491Z,5.25
2022-11-24T07:13:14.223Z,5.40
2022-11-24T07:15:41.650Z,5.70
2022-11-24T07:18:09.111Z,5.58
2022-11-24T07:20:36.520Z,4.59
2022-11-24T07:23:03.943Z,5.15
2022-11-24T07:25:31.413Z,5.42
2022-11-24T07:27:59.226Z,5.45
2022-11-24T07:30:29.011Z,5.22
2022-11-24T07:33:00.010Z,5.64
2022-11-24T07:35:27.707Z,5.90
2022-11-24T07:37:56.073Z,5.84
2022-11-24T07:40:23.979Z,5.90
2022-11-24T07:42:51.422Z,5.55
2022-11-24T07:45:18.793Z,5.52
2022-11-24T07:47:47.581Z,5.65
2022-11-24T07:50:15.171Z,4.95
2022-11-24T07:52:42.614Z,5.48
2022-11-24T07:55:10.694Z,5.50
2022-11-24T07:57:38.184Z,4.71
2022-11-24T08:00:06.642Z,5.22
2022-11-24T08:02:34.699Z,5.45
2022-11-24T08:05:03.380Z,5.94
2022-11-24T08:07:30.872Z,6.15
2022-11-24T08:09:58.314Z,6.04
2022-11-24T08:12:25.747Z,6.00
2022-11-24T08:14:53.153Z,5.41
2022-11-24T08:17:20.852Z,5.48
2022-11-24T08:19:48.302Z,5.86
2022-11-24T08:22:17.051Z,6.17
2022-11-24T08:24:47.598Z,6.17
2022-11-24T08:27:16.454Z,6.42
2022-11-24T08:29:44.212Z,6.32
2022-11-24T08:32:15.059Z,6.44
2022-11-24T08:34:44.864Z,5.97
2022-11-24T08:37:12.438Z,6.19
2022-11-24T08:39:41.238Z,6.30
2022-11-24T08:42:08.672Z,6.43
2022-11-24T08:44:36.652Z,6.25
2022-11-24T08:47:04.423Z,6.08
2022-11-24T08:49:31.823Z,5.96
2022-11-24T08:51:59.221Z,4.97
2022-11-24T08:54:27.495Z,5.92
2022-11-24T08:56:56.249Z,5.91
2022-11-24T08:59:23.786Z,6.00
2022-11-24T09:01:51.280Z,5.66
2022-11-24T09:04:18.762Z,6.21
2022-11-24T09:06:46.152Z,6.28
2022-11-24T09:09:13.748Z,6.56
2022-11-24T09:11:41.159Z,6.66
2022-11-24T09:14:09.907Z,6.91
2022-11-24T09:16:37.666Z,6.65
2022-11-24T09:19:07.992Z,6.23
2022-11-24T09:21:37.710Z,6.46
2022-11-24T09:24:07.296Z,5.71
2022-11-24T09:26:36.917Z,5.63
2022-11-24T09:29:07.946Z,6.00
2022-11-24T09:31:39.180Z,5.29
2022-11-24T09:34:08.535Z,5.64
2022-11-24T09:36:36.700Z,6.38
2022-11-24T09:39:04.655Z,6.25
2022-11-24T09:41:51.980Z,7.01
2022-11-24T09:44:38.917Z,7.27
2022-11-24T09:47:17.558Z,6.98
2022-11-24T09:49:51.903Z,7.19
2022-11-24T09:52:23.955Z,7.24
2022-11-24T09:54:56.348Z,7.32
2022-11-24T09:57:28.679Z,7.22
2022-11-24T10:00:04.892Z,6.97
2022-11-24T10:02:33.733Z,6.07
2022-11-24T10:05:01.226Z,7.00
2022-11-24T10:07:31.769Z,6.94
2022-11-24T10:10:05.356Z,6.74
2022-11-24T10:12:48.641Z,6.60
2022-11-24T10:15:42.393Z,7.40
2022-11-24T10:18:38.854Z,7.13
2022-11-24T10:21:23.456Z,7.31
2022-11-24T10:24:09.807Z,7.54
2022-11-24T10:26:39.010Z,11.59
2022-11-24T10:29:20.097Z,12.93
2022-11-24T10:31:50.979Z,11.97
2022-11-24T10:34:24.176Z,11.96
2022-11-24T10:36:59.039Z,11.69
2022-11-24T10:39:33.416Z,9.78
2022-11-24T10:42:06.693Z,7.89
2022-11-24T10:44:34.527Z,9.02
2022-11-24T10:47:02.391Z,10.89
2022-11-24T10:49:34.247Z,11.39
2022-11-24T10:52:07.678Z,10.00
2022-11-24T10:54:36.800Z,9.32
2022-11-24T10:57:04.497Z,9.29
2022-11-24T10:59:38.712Z,8.85
2022-11-24T11:02:31.750Z,8.49
2022-11-24T11:05:37.922Z,8.57
2022-11-24T11:08:27.374Z,8.38
2022-11-24T11:11:14.904Z,8.22
2022-11-24T11:13:51.986Z,7.49
2022-11-24T11:16:35.557Z,7.90
2022-11-24T11:19:20.292Z,8.01
2022-11-24T11:22:02.015Z,8.14
2022-11-24T11:24:29.752Z,7.41
2022-11-24T11:27:01.594Z,8.05
2022-11-24T11:35:12.510Z,8.18
2022-11-24T11:37:41.437Z,8.39
2022-11-24T11:40:15.627Z,7.93
2022-11-24T11:43:04.224Z,7.19
2022-11-24T11:45:36.411Z,7.87
2022-11-24T11:48:21.053Z,8.18
2022-11-24T11:53:59.498Z,7.97
2022-11-24T11:56:29.280Z,8.33
2022-11-24T11:59:10.789Z,8.35
2022-11-24T12:01:53.554Z,8.86
2022-11-24T12:04:31.869Z,8.83
2022-11-24T12:07:34.622Z,8.87
2022-11-24T12:10:12.209Z,8.72
2022-11-24T12:13:04.481Z,8.91
2022-11-24T12:15:37.502Z,8.97
2022-11-24T12:18:40.314Z,8.93
2022-11-24T12:21:13.055Z,8.95
2022-11-24T12:23:53.975Z,8.86
2022-11-24T12:26:33.027Z,8.53
2022-11-24T12:29:15.291Z,9.01
2022-11-24T12:31:51.922Z,9.18
2022-11-24T12:34:31.006Z,9.17
2022-11-24T12:37:16.042Z,9.47
2022-11-24T12:39:53.846Z,9.39
2022-11-24T12:42:35.155Z,9.26
2022-11-24T12:45:13.980Z,8.95
2022-11-24T12:48:00.383Z,9.03
2022-11-24T12:50:30.296Z,8.72
2022-11-24T12:53:03.394Z,8.70
2022-11-24T12:55:33.637Z,9.23
2022-11-24T12:58:11.591Z,8.43
2022-11-24T13:00:52.867Z,8.87
2022-11-24T13:03:35.651Z,9.08
2022-11-24T13:06:12.543Z,8.89
2022-11-24T13:08:40.640Z,9.06
2022-11-24T13:11:38.345Z,9.26
2022-11-24T13:14:13.374Z,9.33
2022-11-24T13:17:27.965Z,9.44
2022-11-24T13:19:44.163Z,9.33
2022-11-24T13:22:16.871Z,9.55
2022-11-24T13:24:45.319Z,9.32
2022-11-24T13:27:41.666Z,9.52
2022-11-24T13:30:58.901Z,9.40
2022-11-24T13:33:35.206Z,9.28
2022-11-24T13:36:32.711Z,9.37
2022-11-24T13:39:01.645Z,9.35
2022-11-24T13:42:43.767Z,8.61
2022-11-24T13:45:00.382Z,9.33
2022-11-24T13:47:39.953Z,9.65
2022-11-24T13:50:11.390Z,9.65
2022-11-24T13:52:43.480Z,9.64
2022-11-24T13:55:23.491Z,9.10
2022-11-24T13:57:52.613Z,9.45
2022-11-24T14:00:22.192Z,9.53
2022-11-24T14:02:50.044Z,9.38
2022-11-24T14:05:22.572Z,9.37
2022-11-24T14:07:52.983Z,9.57
2022-11-24T14:10:27.067Z,9.53
2022-11-24T14:13:33.056Z,9.48
2022-11-24T14:16:02.411Z,9.53
2022-11-24T14:18:30.139Z,9.48
2022-11-24T14:21:01.015Z,9.39
2022-11-24T14:23:28.669Z,9.41
2022-11-24T14:25:56.050Z,9.10
2022-11-24T14:28:26.361Z,9.20
2022-11-24T14:31:08.637Z,9.21
2022-11-24T14:33:36.555Z,9.26
2022-11-24T14:36:05.906Z,9.45
2022-11-24T14:38:33.325Z,9.52
2022-11-24T14:41:17.184Z,9.40
2022-11-24T14:43:44.685Z,9.17
2022-11-24T14:46:19.718Z,9.50
2022-11-24T14:48:49.503Z,9.26
2022-11-24T14:51:22.243Z,9.01
2022-11-24T14:53:52.195Z,9.21
2022-11-24T14:56:25.202Z,9.25
2022-11-24T14:58:53.093Z,9.16
2022-11-24T15:01:29.130Z,9.23
2022-11-24T15:04:26.472Z,9.17
2022-11-24T15:07:07.661Z,9.29
2022-11-24T15:09:39.698Z,9.31
2022-11-24T15:12:09.546Z,9.18
2022-11-24T15:14:49.742Z,9.03
2022-11-24T15:17:19.542Z,9.17
2022-11-24T15:19:51.342Z,9.03
2022-11-24T15:22:35.256Z,9.12
2022-11-24T15:25:03.867Z,9.20
2022-11-24T15:27:31.310Z,9.13
2022-11-24T15:29:58.693Z,8.94
2022-11-24T15:32:26.127Z,8.73
2022-11-24T15:34:53.500Z,8.95
2022-11-24T15:37:20.912Z,9.15
2022-11-24T15:39:49.607Z,9.06
2022-11-24T15:42:16.972Z,9.21
2022-11-24T15:44:44.376Z,9.24
2022-11-24T15:47:11.826Z,9.07
2022-11-24T15:49:39.298Z,8.84
2022-11-24T15:52:06.864Z,9.16
2022-11-24T15:54:34.713Z,9.03
2022-11-24T15:57:03.669Z,9.26
2022-11-24T15:59:31.190Z,9.30
2022-11-24T16:01:58.621Z,9.28
2022-11-24T16:04:26.099Z,9.24
2022-11-24T16:06:53.472Z,9.13
2022-11-24T16:09:20.938Z,9.20
2022-11-24T16:11:48.360Z,9.22
2022-11-24T16:14:17.135Z,9.11
2022-11-24T16:16:44.705Z,9.25
2022-11-24T16:19:12.392Z,9.20
2022-11-24T16:21:41.151Z,9.10
2022-11-24T16:24:08.930Z,8.93
2022-11-24T16:26:36.332Z,9.18
2022-11-24T16:29:04.194Z,9.09
2022-11-24T16:31:33.169Z,8.74
2022-11-24T16:34:00.650Z,8.93
2022-11-24T16:36:28.344Z,9.01
2022-11-24T16:38:55.776Z,8.56
2022-11-24T16:41:23.149Z,8.90
2022-11-24T16:43:50.550Z,8.98
2022-11-24T16:46:20.274Z,8.95
2022-11-24T16:48:51.083Z,9.02
2022-11-24T16:51:20.202Z,8.97
2022-11-24T16:53:47.744Z,8.95
2022-11-24T16:56:16.412Z,7.96
2022-11-24T16:58:44.069Z,8.70
2022-11-24T17:01:14.352Z,8.42
2022-11-24T17:03:42.130Z,7.69
2022-11-24T17:06:12.851Z,8.37
2022-11-24T17:08:41.459Z,8.75
2022-11-24T17:11:09.834Z,8.77
2022-11-24T17:13:37.978Z,8.97
2022-11-24T17:16:06.326Z,8.97
2022-11-24T17:18:34.585Z,8.97
2022-11-24T17:21:09.262Z,8.73
2022-11-24T17:23:38.933Z,8.91
2022-11-24T17:26:08.203Z,8.82
2022-11-24T17:28:36.072Z,8.76
2022-11-24T17:31:07.707Z,8.85
2022-11-24T17:33:35.391Z,8.87
2022-11-24T17:36:03.621Z,8.25
2022-11-24T17:38:31.751Z,7.34
2022-11-24T17:41:00.744Z,7.78
2022-11-24T17:43:28.357Z,8.54
2022-11-24T17:45:56.788Z,9.58
2022-11-24T17:48:24.546Z,9.57
2022-11-24T17:50:59.913Z,9.48
2022-11-24T17:53:27.453Z,9.08
2022-11-24T17:55:54.899Z,9.12
2022-11-24T17:58:23.594Z,9.00
2022-11-24T18:00:52.876Z,8.96
2022-11-24T18:03:20.314Z,8.88
2022-11-24T18:05:47.971Z,8.71
2022-11-24T18:08:15.487Z,8.76
2022-11-24T18:10:42.905Z,8.76
2022-11-24T18:13:22.192Z,8.93
2022-11-24T18:16:01.733Z,8.70
2022-11-24T18:18:29.491Z,8.49
2022-11-24T18:20:58.155Z,8.86
2022-11-24T18:23:26.755Z,8.11
2022-11-24T18:25:55.143Z,8.14
2022-11-24T18:28:22.977Z,8.72
2022-11-24T18:30:50.524Z,8.57
2022-11-24T18:33:20.054Z,8.69
2022-11-24T18:35:56.496Z,8.67
2022-11-24T18:38:23.939Z,8.59
2022-11-24T18:40:54.148Z,8.28
2022-11-24T18:43:21.690Z,8.47
2022-11-24T18:45:49.329Z,8.50
2022-11-24T18:48:17.055Z,8.56
2022-11-24T18:50:50.722Z,8.61
2022-11-24T18:53:18.248Z,8.24
2022-11-24T18:55:55.040Z,8.44
2022-11-24T18:58:22.464Z,8.41
2022-11-24T19:00:50.012Z,7.95
2022-11-24T19:03:17.535Z,8.12
2022-11-24T19:05:46.459Z,8.31
2022-11-24T19:08:13.900Z,8.64
2022-11-24T19:10:41.436Z,8.69
2022-11-24T19:13:08.824Z,8.80
2022-11-24T19:15:36.711Z,8.30
2022-11-24T19:18:04.263Z,8.04
2022-11-24T19:20:31.678Z,7.93
2022-11-24T19:23:00.390Z,8.14
2022-11-24T19:25:27.856Z,7.72
2022-11-24T19:27:55.325Z,7.90
2022-11-24T19:30:22.736Z,8.25
2022-11-24T19:32:50.131Z,8.32
2022-11-24T19:35:17.854Z,8.31
2022-11-24T19:37:45.268Z,8.30
2022-11-24T19:40:15.184Z,8.21
2022-11-24T19:42:42.588Z,8.07
2022-11-24T19:45:10.919Z,8.07
2022-11-24T19:47:38.608Z,7.75
2022-11-24T19:50:10.401Z,7.90
2022-11-24T19:52:38.061Z,7.77
2022-11-24T19:55:06.279Z,8.16
2022-11-24T19:57:34.992Z,8.14
2022-11-24T20:00:02.720Z,8.07
2022-11-24T20:02:31.580Z,7.97
2022-11-24T20:04:59.196Z,7.94
2022-11-24T20:07:26.666Z,8.14
2022-11-24T20:09:54.143Z,8.05
2022-11-24T20:12:21.623Z,7.83
2022-11-24T20:14:50.359Z,7.69
2022-11-24T20:17:17.755Z,7.89
2022-11-24T20:19:45.138Z,7.80
2022-11-24T20:22:12.617Z,7.91
2022-11-24T20:24:40.121Z,7.83
2022-11-24T20:27:07.691Z,7.94
2022-11-24T20:29:35.167Z,7.86
2022-11-24T20:32:03.925Z,7.77
2022-11-24T20:34:31.417Z,7.81
2022-11-24T20:36:58.864Z,7.87
2022-11-24T20:39:28.293Z,7.74
2022-11-24T20:41:56.989Z,7.90
2022-11-24T20:44:26.550Z,7.79
2022-11-24T20:46:55.944Z,8.03
2022-11-24T20:49:25.058Z,8.03
2022-11-24T20:51:54.588Z,7.63
2022-11-24T20:54:22.725Z,7.63
2022-11-24T20:56:50.159Z,7.74
2022-11-24T20:59:21.703Z,7.76
2022-11-24T21:01:50.268Z,7.78
2022-11-24T21:04:20.080Z,7.85
2022-11-24T21:06:49.194Z,8.02
2022-11-24T21:09:17.282Z,7.99
2022-11-24T21:11:45.095Z,8.05
2022-11-24T21:14:13.170Z,8.11
2022-11-24T21:16:42.377Z,8.80
2022-11-24T21:19:12.984Z,9.69
2022-11-24T21:21:43.321Z,10.39
2022-11-24T21:24:14.475Z,10.42
2022-11-24T21:26:43.136Z,9.43
2022-11-24T21:29:12.981Z,8.76
2022-11-24T21:31:40.797Z,8.30
2022-11-24T21:34:09.125Z,7.07
2022-11-24T21:36:40.016Z,7.62
2022-11-24T21:39:07.626Z,7.81
2022-11-24T21:41:36.387Z,7.58
2022-11-24T21:44:04.011Z,7.86
2022-11-24T21:46:39.076Z,7.78
2022-11-24T21:49:09.947Z,7.51
2022-11-24T21:51:37.399Z,7.64
2022-11-24T21:54:05.586Z,7.44
2022-11-24T21:56:33.018Z,7.49
2022-11-24T21:59:01.766Z,7.58
2022-11-24T22:01:29.875Z,7.55
2022-11-24T22:03:57.326Z,7.60
2022-11-24T22:06:24.858Z,7.55
2022-11-24T22:08:52.388Z,7.60
2022-11-24T22:11:22.065Z,7.70
2022-11-24T22:13:49.994Z,7.27
2022-11-24T22:16:20.529Z,7.63
2022-11-24T22:18:48.706Z,7.75
2022-11-24T22:21:18.247Z,7.79
2022-11-24T22:23:46.268Z,7.82
2022-11-24T22:26:15.970Z,8.00
2022-11-24T22:28:44.639Z,8.12
2022-11-24T22:31:17.849Z,8.01
2022-11-24T22:33:47.107Z,8.00
2022-11-24T22:36:16.089Z,7.90
2022-11-24T22:38:44.265Z,8.06
2022-11-24T22:41:13.964Z,7.43
2022-11-24T22:43:43.515Z,7.56
2022-11-24T22:46:12.803Z,7.98
2022-11-24T22:48:41.318Z,8.18
2022-11-24T22:51:12.132Z,8.10
2022-11-24T22:53:40.138Z,8.05
2022-11-24T22:56:10.352Z,8.04
2022-11-24T22:58:38.460Z,8.08
2022-11-24T23:01:06.679Z,8.26
2022-11-24T23:03:35.149Z,8.20
2022-11-24T23:06:03.283Z,8.21
2022-11-24T23:08:33.917Z,8.26
2022-11-24T23:11:02.840Z,8.25
2022-11-24T23:13:30.262Z,8.24
2022-11-24T23:16:01.957Z,8.29
2022-11-24T23:18:29.626Z,8.27
2022-11-24T23:20:57.338Z,8.37
2022-11-24T23:23:24.721Z,8.33
2022-11-24T23:25:53.449Z,8.39
2022-11-24T23:28:20.825Z,8.02
2022-11-24T23:30:48.233Z,7.21
2022-11-24T23:33:15.634Z,7.95
2022-11-24T23:35:43.096Z,8.09
2022-11-24T23:38:10.567Z,8.27
2022-11-24T23:40:37.959Z,8.31
2022-11-24T23:43:06.710Z,8.28
2022-11-24T23:45:34.180Z,8.44
2022-11-24T23:48:02.284Z,8.37
2022-11-24T23:50:30.042Z,8.41
2022-11-24T23:52:57.465Z,8.47
2022-11-24T23:55:24.919Z,8.35
2022-11-24T23:57:52.383Z,8.49
